sensor_id;sensor_type;location;lat;lon;timestamp;P1;durP1;ratioP1;P2;durP2;ratioP2
55756;SDS011;41676;44.610;44.078;2022-12-24T00:04:33;11.50;;;6.85;;
55756;SDS011;41676;44.610;44.078;2022-12-24T00:09:34;17.30;;;7.82;;
55756;SDS011;41676;44.610;44.078;2022-12-24T00:14:35;16.10;;;8.20;;
55756;SDS011;41676;44.610;44.078;2022-12-24T00:19:35;16.20;;;7.75;;
55756;SDS011;41676;44.610;44.078;2022-12-24T00:24:36;13.10;;;7.68;;
55756;SDS011;41676;44.610;44.078;2022-12-24T00:29:37;14.07;;;7.85;;
55756;SDS011;41676;44.610;44.078;2022-12-24T00:34:38;14.50;;;8.18;;
55756;SDS011;41676;44.610;44.078;2022-12-24T00:39:39;19.10;;;7.93;;
55756;SDS011;41676;44.610;44.078;2022-12-24T00:44:40;20.52;;;8.70;;
55756;SDS011;41676;44.610;44.078;2022-12-24T00:49:41;17.42;;;8.45;;
55756;SDS011;41676;44.610;44.078;2022-12-24T00:54:41;16.80;;;9.07;;
55756;SDS011;41676;44.610;44.078;2022-12-24T00:59:42;18.00;;;9.32;;
55756;SDS011;41676;44.610;44.078;2022-12-24T01:04:43;24.13;;;10.13;;
55756;SDS011;41676;44.610;44.078;2022-12-24T01:10:03;23.77;;;11.02;;
55756;SDS011;41676;44.610;44.078;2022-12-24T01:15:05;27.42;;;11.55;;
55756;SDS011;41676;44.610;44.078;2022-12-24T01:20:09;20.80;;;9.77;;
55756;SDS011;41676;44.610;44.078;2022-12-24T01:25:13;27.40;;;12.05;;
55756;SDS011;41676;44.610;44.078;2022-12-24T01:30:14;30.33;;;12.25;;
55756;SDS011;41676;44.610;44.078;2022-12-24T01:35:15;24.00;;;10.63;;
55756;SDS011;41676;44.610;44.078;2022-12-24T01:40:16;28.70;;;13.35;;
55756;SDS011;41676;44.610;44.078;2022-12-24T01:50:36;28.83;;;12.65;;
55756;SDS011;41676;44.610;44.078;2022-12-24T01:55:37;35.80;;;13.25;;
55756;SDS011;41676;44.610;44.078;2022-12-24T02:00:38;31.75;;;13.15;;
55756;SDS011;41676;44.610;44.078;2022-12-24T02:10:53;30.67;;;13.18;;
55756;SDS011;41676;44.610;44.078;2022-12-24T02:21:41;32.50;;;14.30;;
55756;SDS011;41676;44.610;44.078;2022-12-24T02:26:54;45.53;;;13.85;;
55756;SDS011;41676;44.610;44.078;2022-12-24T02:32:48;29.25;;;13.05;;
55756;SDS011;41676;44.610;44.078;2022-12-24T02:37:48;30.75;;;13.38;;
55756;SDS011;41676;44.610;44.078;2022-12-24T02:42:57;51.80;;;14.25;;
55756;SDS011;41676;44.610;44.078;2022-12-24T02:48:02;36.70;;;12.57;;
55756;SDS011;41676;44.610;44.078;2022-12-24T02:53:08;51.80;;;14.45;;
55756;SDS011;41676;44.610;44.078;2022-12-24T03:03:37;40.60;;;13.32;;
55756;SDS011;41676;44.610;44.078;2022-12-24T03:09:01;40.35;;;13.40;;
55756;SDS011;41676;44.610;44.078;2022-12-24T03:14:13;37.37;;;13.50;;
55756;SDS011;41676;44.610;44.078;2022-12-24T03:19:15;38.10;;;12.93;;
55756;SDS011;41676;44.610;44.078;2022-12-24T03:24:17;43.85;;;14.73;;
55756;SDS011;41676;44.610;44.078;2022-12-24T03:29:18;52.10;;;15.90;;
55756;SDS011;41676;44.610;44.078;2022-12-24T03:34:19;50.28;;;16.30;;
55756;SDS011;41676;44.610;44.078;2022-12-24T03:39:21;44.92;;;15.32;;
55756;SDS011;41676;44.610;44.078;2022-12-24T03:44:22;55.35;;;15.93;;
55756;SDS011;41676;44.610;44.078;2022-12-24T03:49:22;57.40;;;16.17;;
55756;SDS011;41676;44.610;44.078;2022-12-24T03:54:23;58.35;;;16.25;;
55756;SDS011;41676;44.610;44.078;2022-12-24T03:59:24;50.58;;;17.13;;
55756;SDS011;41676;44.610;44.078;2022-12-24T04:04:26;72.82;;;18.30;;
55756;SDS011;41676;44.610;44.078;2022-12-24T04:09:27;52.22;;;16.90;;
55756;SDS011;41676;44.610;44.078;2022-12-24T04:14:28;71.45;;;17.30;;
55756;SDS011;41676;44.610;44.078;2022-12-24T04:19:29;40.60;;;15.60;;
55756;SDS011;41676;44.610;44.078;2022-12-24T04:24:30;58.85;;;16.42;;
55756;SDS011;41676;44.610;44.078;2022-12-24T04:29:30;43.67;;;15.80;;
55756;SDS011;41676;44.610;44.078;2022-12-24T04:34:31;48.15;;;18.15;;
55756;SDS011;41676;44.610;44.078;2022-12-24T04:39:32;58.30;;;17.05;;
55756;SDS011;41676;44.610;44.078;2022-12-24T04:44:33;45.75;;;17.10;;
55756;SDS011;41676;44.610;44.078;2022-12-24T04:49:34;53.85;;;17.63;;
55756;SDS011;41676;44.610;44.078;2022-12-24T04:54:34;47.50;;;16.27;;
55756;SDS011;41676;44.610;44.078;2022-12-24T04:59:35;67.07;;;17.58;;
55756;SDS011;41676;44.610;44.078;2022-12-24T05:04:36;60.30;;;17.92;;
55756;SDS011;41676;44.610;44.078;2022-12-24T05:09:37;51.97;;;16.30;;
55756;SDS011;41676;44.610;44.078;2022-12-24T05:14:38;48.83;;;16.00;;
55756;SDS011;41676;44.610;44.078;2022-12-24T05:19:39;55.00;;;16.48;;
55756;SDS011;41676;44.610;44.078;2022-12-24T05:24:40;50.08;;;15.55;;
55756;SDS011;41676;44.610;44.078;2022-12-24T05:29:59;47.30;;;15.32;;
55756;SDS011;41676;44.610;44.078;2022-12-24T05:35:00;50.40;;;16.95;;
55756;SDS011;41676;44.610;44.078;2022-12-24T05:40:01;52.35;;;15.82;;
55756;SDS011;41676;44.610;44.078;2022-12-24T05:45:02;53.80;;;14.70;;
55756;SDS011;41676;44.610;44.078;2022-12-24T05:50:03;51.00;;;15.25;;
55756;SDS011;41676;44.610;44.078;2022-12-24T05:55:05;52.95;;;15.50;;
55756;SDS011;41676;44.610;44.078;2022-12-24T06:00:06;46.70;;;14.15;;
55756;SDS011;41676;44.610;44.078;2022-12-24T06:05:07;43.40;;;13.60;;
55756;SDS011;41676;44.610;44.078;2022-12-24T06:10:08;43.60;;;14.68;;
55756;SDS011;41676;44.610;44.078;2022-12-24T06:15:10;38.50;;;13.32;;
55756;SDS011;41676;44.610;44.078;2022-12-24T06:20:11;47.25;;;15.82;;
55756;SDS011;41676;44.610;44.078;2022-12-24T06:25:11;45.22;;;15.77;;
55756;SDS011;41676;44.610;44.078;2022-12-24T06:30:12;43.47;;;16.13;;
55756;SDS011;41676;44.610;44.078;2022-12-24T06:35:13;40.47;;;15.18;;
55756;SDS011;41676;44.610;44.078;2022-12-24T06:40:14;40.88;;;14.32;;
55756;SDS011;41676;44.610;44.078;2022-12-24T06:45:14;49.28;;;15.70;;
55756;SDS011;41676;44.610;44.078;2022-12-24T06:50:15;38.40;;;13.77;;
55756;SDS011;41676;44.610;44.078;2022-12-24T06:55:16;32.45;;;12.38;;
55756;SDS011;41676;44.610;44.078;2022-12-24T07:00:17;36.45;;;11.93;;
55756;SDS011;41676;44.610;44.078;2022-12-24T07:05:18;30.50;;;12.05;;
55756;SDS011;41676;44.610;44.078;2022-12-24T07:10:19;31.58;;;11.93;;
55756;SDS011;41676;44.610;44.078;2022-12-24T07:15:20;33.33;;;12.93;;
55756;SDS011;41676;44.610;44.078;2022-12-24T07:20:21;35.13;;;13.35;;
55756;SDS011;41676;44.610;44.078;2022-12-24T07:25:22;33.83;;;12.10;;
55756;SDS011;41676;44.610;44.078;2022-12-24T07:30:23;31.33;;;12.85;;
55756;SDS011;41676;44.610;44.078;2022-12-24T07:35:23;32.78;;;12.55;;
55756;SDS011;41676;44.610;44.078;2022-12-24T07:40:24;33.55;;;12.48;;
55756;SDS011;41676;44.610;44.078;2022-12-24T07:45:25;29.00;;;12.43;;
55756;SDS011;41676;44.610;44.078;2022-12-24T07:50:26;28.08;;;11.65;;
55756;SDS011;41676;44.610;44.078;2022-12-24T07:55:27;25.88;;;11.35;;
55756;SDS011;41676;44.610;44.078;2022-12-24T08:00:28;21.35;;;10.00;;
55756;SDS011;41676;44.610;44.078;2022-12-24T08:05:32;24.25;;;11.88;;
55756;SDS011;41676;44.610;44.078;2022-12-24T08:10:37;24.27;;;11.55;;
55756;SDS011;41676;44.610;44.078;2022-12-24T08:20:39;26.63;;;12.68;;
55756;SDS011;41676;44.610;44.078;2022-12-24T08:25:41;25.75;;;14.45;;
55756;SDS011;41676;44.610;44.078;2022-12-24T08:30:43;27.30;;;13.60;;
55756;SDS011;41676;44.610;44.078;2022-12-24T08:35:48;28.17;;;13.13;;
55756;SDS011;41676;44.610;44.078;2022-12-24T08:40:51;29.05;;;15.10;;
55756;SDS011;41676;44.610;44.078;2022-12-24T08:45:53;26.55;;;15.25;;
55756;SDS011;41676;44.610;44.078;2022-12-24T08:50:53;31.80;;;14.68;;
55756;SDS011;41676;44.610;44.078;2022-12-24T08:55:59;33.58;;;17.27;;
55756;SDS011;41676;44.610;44.078;2022-12-24T09:01:08;35.60;;;19.10;;
55756;SDS011;41676;44.610;44.078;2022-12-24T09:06:11;37.47;;;17.15;;
55756;SDS011;41676;44.610;44.078;2022-12-24T09:11:14;37.17;;;17.08;;
55756;SDS011;41676;44.610;44.078;2022-12-24T09:16:16;39.87;;;19.10;;
55756;SDS011;41676;44.610;44.078;2022-12-24T09:21:17;30.05;;;16.35;;
55756;SDS011;41676;44.610;44.078;2022-12-24T09:26:20;28.48;;;16.65;;
55756;SDS011;41676;44.610;44.078;2022-12-24T09:31:23;29.35;;;15.30;;
55756;SDS011;41676;44.610;44.078;2022-12-24T09:36:23;26.92;;;14.27;;
55756;SDS011;41676;44.610;44.078;2022-12-24T09:46:47;19.25;;;10.80;;
55756;SDS011;41676;44.610;44.078;2022-12-24T09:51:52;22.80;;;11.27;;
55756;SDS011;41676;44.610;44.078;2022-12-24T09:57:04;20.33;;;10.38;;
55756;SDS011;41676;44.610;44.078;2022-12-24T10:02:14;24.15;;;11.02;;
55756;SDS011;41676;44.610;44.078;2022-12-24T10:12:48;26.60;;;10.98;;
55756;SDS011;41676;44.610;44.078;2022-12-24T10:18:03;17.35;;;10.27;;
55756;SDS011;41676;44.610;44.078;2022-12-24T10:28:34;16.00;;;9.70;;
55756;SDS011;41676;44.610;44.078;2022-12-24T10:33:46;16.50;;;9.57;;
55756;SDS011;41676;44.610;44.078;2022-12-24T10:38:54;20.58;;;10.98;;
55756;SDS011;41676;44.610;44.078;2022-12-24T10:43:56;23.50;;;13.43;;
55756;SDS011;41676;44.610;44.078;2022-12-24T10:49:02;25.40;;;15.35;;
55756;SDS011;41676;44.610;44.078;2022-12-24T10:54:06;26.27;;;16.17;;
55756;SDS011;41676;44.610;44.078;2022-12-24T10:59:26;28.67;;;16.50;;
55756;SDS011;41676;44.610;44.078;2022-12-24T11:04:31;25.73;;;15.75;;
55756;SDS011;41676;44.610;44.078;2022-12-24T11:09:39;24.25;;;13.90;;
55756;SDS011;41676;44.610;44.078;2022-12-24T11:14:40;29.20;;;15.82;;
55756;SDS011;41676;44.610;44.078;2022-12-24T11:19:43;26.00;;;14.30;;
55756;SDS011;41676;44.610;44.078;2022-12-24T11:25:33;27.05;;;13.07;;
55756;SDS011;41676;44.610;44.078;2022-12-24T11:30:25;28.05;;;12.45;;
55756;SDS011;41676;44.610;44.078;2022-12-24T11:35:26;20.52;;;11.35;;
55756;SDS011;41676;44.610;44.078;2022-12-24T11:40:39;23.55;;;11.32;;
55756;SDS011;41676;44.610;44.078;2022-12-24T11:45:49;21.40;;;11.18;;
55756;SDS011;41676;44.610;44.078;2022-12-24T11:51:00;32.88;;;12.13;;
55756;SDS011;41676;44.610;44.078;2022-12-24T11:56:06;20.00;;;11.23;;
55756;SDS011;41676;44.610;44.078;2022-12-24T12:11:31;22.10;;;11.38;;
55756;SDS011;41676;44.610;44.078;2022-12-24T12:21:59;28.02;;;17.20;;
55756;SDS011;41676;44.610;44.078;2022-12-24T12:32:20;23.33;;;11.90;;
55756;SDS011;41676;44.610;44.078;2022-12-24T12:37:32;22.90;;;10.93;;
55756;SDS011;41676;44.610;44.078;2022-12-24T12:42:38;22.58;;;10.55;;
55756;SDS011;41676;44.610;44.078;2022-12-24T13:09:29;19.85;;;11.02;;
55756;SDS011;41676;44.610;44.078;2022-12-24T13:25:17;18.13;;;11.30;;
55756;SDS011;41676;44.610;44.078;2022-12-24T13:30:32;14.93;;;9.35;;
55756;SDS011;41676;44.610;44.078;2022-12-24T13:35:56;18.73;;;11.10;;
55756;SDS011;41676;44.610;44.078;2022-12-24T13:52:07;19.20;;;11.23;;
55756;SDS011;41676;44.610;44.078;2022-12-24T13:58:04;18.52;;;10.63;;
55756;SDS011;41676;44.610;44.078;2022-12-24T14:02:46;21.33;;;11.50;;
55756;SDS011;41676;44.610;44.078;2022-12-24T14:07:57;23.65;;;11.13;;
55756;SDS011;41676;44.610;44.078;2022-12-24T14:13:01;20.95;;;11.75;;
55756;SDS011;41676;44.610;44.078;2022-12-24T14:18:02;24.38;;;13.27;;
55756;SDS011;41676;44.610;44.078;2022-12-24T14:23:03;21.83;;;12.52;;
55756;SDS011;41676;44.610;44.078;2022-12-24T14:28:05;23.40;;;11.63;;
55756;SDS011;41676;44.610;44.078;2022-12-24T14:33:29;55.58;;;31.77;;
55756;SDS011;41676;44.610;44.078;2022-12-24T14:38:31;35.60;;;19.13;;
55756;SDS011;41676;44.610;44.078;2022-12-24T14:54:31;23.10;;;13.80;;
55756;SDS011;41676;44.610;44.078;2022-12-24T15:04:43;54.38;;;35.45;;
55756;SDS011;41676;44.610;44.078;2022-12-24T15:09:44;30.65;;;17.77;;
55756;SDS011;41676;44.610;44.078;2022-12-24T15:14:45;25.13;;;15.23;;
55756;SDS011;41676;44.610;44.078;2022-12-24T15:19:46;22.25;;;13.32;;
55756;SDS011;41676;44.610;44.078;2022-12-24T15:24:51;28.55;;;16.13;;
55756;SDS011;41676;44.610;44.078;2022-12-24T15:29:55;26.25;;;14.65;;
55756;SDS011;41676;44.610;44.078;2022-12-24T15:34:57;25.08;;;15.55;;
55756;SDS011;41676;44.610;44.078;2022-12-24T15:40:09;23.15;;;14.30;;
55756;SDS011;41676;44.610;44.078;2022-12-24T15:45:20;22.80;;;14.95;;
55756;SDS011;41676;44.610;44.078;2022-12-24T15:50:34;134.98;;;91.22;;
55756;SDS011;41676;44.610;44.078;2022-12-24T16:00:40;29.23;;;16.37;;
55756;SDS011;41676;44.610;44.078;2022-12-24T16:05:41;27.35;;;16.60;;
55756;SDS011;41676;44.610;44.078;2022-12-24T16:10:49;24.98;;;15.23;;
55756;SDS011;41676;44.610;44.078;2022-12-24T16:20:56;25.83;;;16.13;;
55756;SDS011;41676;44.610;44.078;2022-12-24T16:25:57;24.08;;;14.43;;
55756;SDS011;41676;44.610;44.078;2022-12-24T16:30:58;21.95;;;12.80;;
55756;SDS011;41676;44.610;44.078;2022-12-24T16:36:00;20.83;;;13.35;;
55756;SDS011;41676;44.610;44.078;2022-12-24T16:41:00;23.77;;;14.07;;
55756;SDS011;41676;44.610;44.078;2022-12-24T16:46:02;20.15;;;12.77;;
55756;SDS011;41676;44.610;44.078;2022-12-24T16:51:06;20.33;;;13.27;;
55756;SDS011;41676;44.610;44.078;2022-12-24T16:56:06;19.67;;;13.23;;
55756;SDS011;41676;44.610;44.078;2022-12-24T17:01:07;21.08;;;13.35;;
55756;SDS011;41676;44.610;44.078;2022-12-24T17:06:09;22.20;;;15.05;;
55756;SDS011;41676;44.610;44.078;2022-12-24T17:11:09;28.40;;;15.48;;
55756;SDS011;41676;44.610;44.078;2022-12-24T17:16:10;20.83;;;13.70;;
55756;SDS011;41676;44.610;44.078;2022-12-24T17:21:11;22.20;;;14.95;;
55756;SDS011;41676;44.610;44.078;2022-12-24T17:26:13;22.60;;;14.32;;
55756;SDS011;41676;44.610;44.078;2022-12-24T17:31:15;22.63;;;13.98;;
55756;SDS011;41676;44.610;44.078;2022-12-24T17:36:16;20.77;;;13.02;;
55756;SDS011;41676;44.610;44.078;2022-12-24T17:41:18;23.92;;;15.13;;
55756;SDS011;41676;44.610;44.078;2022-12-24T17:46:20;22.58;;;13.82;;
55756;SDS011;41676;44.610;44.078;2022-12-24T17:51:22;19.60;;;12.23;;
55756;SDS011;41676;44.610;44.078;2022-12-24T17:56:23;20.77;;;13.55;;
55756;SDS011;41676;44.610;44.078;2022-12-24T18:01:24;22.30;;;13.48;;
55756;SDS011;41676;44.610;44.078;2022-12-24T18:06:29;19.63;;;12.48;;
55756;SDS011;41676;44.610;44.078;2022-12-24T18:11:31;20.80;;;13.02;;
55756;SDS011;41676;44.610;44.078;2022-12-24T18:16:34;23.30;;;13.63;;
55756;SDS011;41676;44.610;44.078;2022-12-24T18:21:37;22.17;;;12.77;;
55756;SDS011;41676;44.610;44.078;2022-12-24T18:26:38;23.17;;;13.75;;
55756;SDS011;41676;44.610;44.078;2022-12-24T18:31:39;23.17;;;13.63;;
55756;SDS011;41676;44.610;44.078;2022-12-24T18:36:40;21.52;;;13.20;;
55756;SDS011;41676;44.610;44.078;2022-12-24T18:41:42;21.77;;;13.27;;
55756;SDS011;41676;44.610;44.078;2022-12-24T18:46:44;26.90;;;13.32;;
55756;SDS011;41676;44.610;44.078;2022-12-24T18:51:44;22.52;;;14.55;;
55756;SDS011;41676;44.610;44.078;2022-12-24T18:56:45;21.67;;;14.15;;
55756;SDS011;41676;44.610;44.078;2022-12-24T19:06:50;24.67;;;14.27;;
55756;SDS011;41676;44.610;44.078;2022-12-24T19:11:51;20.20;;;12.35;;
55756;SDS011;41676;44.610;44.078;2022-12-24T19:16:51;27.73;;;14.98;;
55756;SDS011;41676;44.610;44.078;2022-12-24T19:21:52;22.58;;;14.27;;
55756;SDS011;41676;44.610;44.078;2022-12-24T19:26:53;20.23;;;12.85;;
55756;SDS011;41676;44.610;44.078;2022-12-24T19:31:54;19.23;;;12.20;;
55756;SDS011;41676;44.610;44.078;2022-12-24T19:36:54;20.00;;;13.02;;
55756;SDS011;41676;44.610;44.078;2022-12-24T19:41:55;22.05;;;13.23;;
55756;SDS011;41676;44.610;44.078;2022-12-24T19:46:56;20.60;;;12.15;;
55756;SDS011;41676;44.610;44.078;2022-12-24T19:51:57;27.30;;;15.35;;
55756;SDS011;41676;44.610;44.078;2022-12-24T19:56:57;34.67;;;14.60;;
55756;SDS011;41676;44.610;44.078;2022-12-24T20:01:58;23.55;;;14.48;;
55756;SDS011;41676;44.610;44.078;2022-12-24T20:06:59;23.48;;;14.55;;
55756;SDS011;41676;44.610;44.078;2022-12-24T20:11:59;20.02;;;12.82;;
55756;SDS011;41676;44.610;44.078;2022-12-24T20:17:00;20.20;;;13.25;;
55756;SDS011;41676;44.610;44.078;2022-12-24T20:22:01;21.02;;;12.82;;
55756;SDS011;41676;44.610;44.078;2022-12-24T20:27:02;20.80;;;13.85;;
55756;SDS011;41676;44.610;44.078;2022-12-24T20:32:03;27.80;;;16.73;;
55756;SDS011;41676;44.610;44.078;2022-12-24T20:37:04;32.67;;;18.52;;
55756;SDS011;41676;44.610;44.078;2022-12-24T20:42:05;27.92;;;19.23;;
55756;SDS011;41676;44.610;44.078;2022-12-24T20:47:06;25.95;;;16.55;;
55756;SDS011;41676;44.610;44.078;2022-12-24T20:52:06;28.65;;;16.10;;
55756;SDS011;41676;44.610;44.078;2022-12-24T20:57:07;27.67;;;16.15;;
55756;SDS011;41676;44.610;44.078;2022-12-24T21:02:10;28.00;;;16.52;;
55756;SDS011;41676;44.610;44.078;2022-12-24T21:07:12;21.38;;;14.27;;
55756;SDS011;41676;44.610;44.078;2022-12-24T21:12:13;24.20;;;14.63;;
55756;SDS011;41676;44.610;44.078;2022-12-24T21:17:32;24.52;;;15.10;;
55756;SDS011;41676;44.610;44.078;2022-12-24T21:22:33;23.55;;;12.13;;
55756;SDS011;41676;44.610;44.078;2022-12-24T21:27:33;19.73;;;13.02;;
55756;SDS011;41676;44.610;44.078;2022-12-24T21:32:35;20.08;;;12.25;;
55756;SDS011;41676;44.610;44.078;2022-12-24T21:37:35;17.13;;;11.90;;
55756;SDS011;41676;44.610;44.078;2022-12-24T21:42:36;25.00;;;14.88;;
55756;SDS011;41676;44.610;44.078;2022-12-24T21:47:37;22.65;;;13.93;;
55756;SDS011;41676;44.610;44.078;2022-12-24T21:52:38;20.48;;;13.43;;
55756;SDS011;41676;44.610;44.078;2022-12-24T21:57:39;27.15;;;14.63;;
55756;SDS011;41676;44.610;44.078;2022-12-24T22:02:53;22.15;;;13.35;;
55756;SDS011;41676;44.610;44.078;2022-12-24T22:07:56;19.00;;;12.75;;
55756;SDS011;41676;44.610;44.078;2022-12-24T22:13:14;22.67;;;14.02;;
55756;SDS011;41676;44.610;44.078;2022-12-24T22:18:17;21.85;;;12.48;;
55756;SDS011;41676;44.610;44.078;2022-12-24T22:23:20;29.37;;;14.13;;
55756;SDS011;41676;44.610;44.078;2022-12-24T22:28:20;20.58;;;13.27;;
55756;SDS011;41676;44.610;44.078;2022-12-24T22:33:21;25.58;;;13.60;;
55756;SDS011;41676;44.610;44.078;2022-12-24T22:38:22;19.52;;;11.82;;
55756;SDS011;41676;44.610;44.078;2022-12-24T22:43:23;24.58;;;14.32;;
55756;SDS011;41676;44.610;44.078;2022-12-24T22:48:24;25.13;;;12.88;;
55756;SDS011;41676;44.610;44.078;2022-12-24T22:53:24;26.02;;;13.52;;
55756;SDS011;41676;44.610;44.078;2022-12-24T22:58:25;23.98;;;13.30;;
55756;SDS011;41676;44.610;44.078;2022-12-24T23:03:27;25.85;;;13.63;;
55756;SDS011;41676;44.610;44.078;2022-12-24T23:08:28;20.88;;;12.43;;
55756;SDS011;41676;44.610;44.078;2022-12-24T23:13:29;22.48;;;13.35;;
55756;SDS011;41676;44.610;44.078;2022-12-24T23:18:48;21.92;;;14.00;;
55756;SDS011;41676;44.610;44.078;2022-12-24T23:23:49;26.40;;;14.80;;
55756;SDS011;41676;44.610;44.078;2022-12-24T23:28:50;22.00;;;14.15;;
55756;SDS011;41676;44.610;44.078;2022-12-24T23:33:54;22.85;;;13.95;;
55756;SDS011;41676;44.610;44.078;2022-12-24T23:38:55;20.92;;;13.13;;
55756;SDS011;41676;44.610;44.078;2022-12-24T23:43:56;20.95;;;12.75;;
55756;SDS011;41676;44.610;44.078;2022-12-24T23:48:57;21.92;;;13.07;;
55756;SDS011;41676;44.610;44.078;2022-12-24T23:53:58;21.05;;;12.65;;
55756;SDS011;41676;44.610;44.078;2022-12-24T23:59:00;21.95;;;13.50;;
